This is the latest recevied weather packets stored in our database for station/object KD0SBN. If no packets are shown the sender has not sent any weather packets the latest 10 day(s).
| Time | Temp. | Humidity | Pressure | Rain* | Wind** | Luminosity | Snow |
|---|---|---|---|---|---|---|---|
| 1778119373 | 5° C | 79% | 1019.2 hPa | 0 mm | - | - | - |
| 1778119071 | 5° C | 79% | 1019.4 hPa | 0 mm | - | - | - |
| 1778118768 | 5° C | 80% | 1019.3 hPa | 0 mm | - | - | - |
| 1778118464 | 5.56° C | 79% | 1019.1 hPa | 0 mm | - | - | - |
| 1778118161 | 5.56° C | 77% | 1019.4 hPa | 0 mm | - | - | - |
| 1778117858 | 6.11° C | 76% | 1019.3 hPa | 0 mm | - | - | - |
| 1778117555 | 6.11° C | 76% | 1019.6 hPa | 0 mm | - | - | - |
| 1778117252 | 6.11° C | 73% | 1019.4 hPa | 0 mm | - | - | - |
| 1778116948 | 6.67° C | 73% | 1019.4 hPa | 0 mm | - | - | - |
| 1778116646 | 6.67° C | 74% | 1019.3 hPa | 0 mm | - | - | - |
| 1778116342 | 6.67° C | 73% | 1019.4 hPa | 0 mm | - | - | - |
| 1778116041 | 6.67° C | 72% | 1019.3 hPa | 0 mm | - | - | - |
| 1778115738 | 7.22° C | 69% | 1019.3 hPa | 0 mm | - | - | - |
| 1778115435 | 7.78° C | 67% | 1019.3 hPa | 0 mm | - | - | - |
| 1778115131 | 7.22° C | 69% | 1019.3 hPa | 0 mm | - | - | - |
| 1778114828 | 7.22° C | 71% | 1019.3 hPa | 0 mm | - | - | - |
| 1778114526 | 7.22° C | 71% | 1019.1 hPa | 0 mm | - | - | - |
| 1778114222 | 7.22° C | 72% | 1019.2 hPa | 0 mm | - | - | - |
| 1778113917 | 7.22° C | 71% | 1019.3 hPa | 0 mm | - | - | - |
| 1778113614 | 7.78° C | 70% | 1019.2 hPa | 0 mm | - | - | - |
| 1778113309 | 6.67° C | 72% | 1019.3 hPa | 0 mm | - | - | - |
| 1778113007 | 6.11° C | 73% | 1019.4 hPa | 0 mm | - | - | - |
| 1778112704 | 6.11° C | 74% | 1019.4 hPa | 0 mm | - | - | - |
| 1778112400 | 6.67° C | 75% | 1019.4 hPa | 0 mm | - | - | - |
| 1778112096 | 6.67° C | 76% | 1019.6 hPa | 0 mm | - | - | - |
* Rain latest hour (hover to see other rain measurements)
** Current wind speed in m/s (hover to see current wind gust speed)